Terminal Aerodrome Forecast
Issued by NWS Rapid City, SD

Home | Current Version | Previous Version | Graphics & Text | Print | Product List | Glossary On
Versions: 1 2 3 4 5 6 7 8 9 10 11 12 13 14 15 16 17 18 19 20 21
000
FTUS43 KUNR 162100 AAB
TAFRAP
TAF AMD
KRAP 162101Z 1621/1718 13007KT P6SM OVC010
     FM170000 13007KT P6SM OVC007
     FM170400 12006KT P6SM OVC004=

USA.gov is the U.S. government's official web portal to all federal, state and local government web resources and services.